Time;durP1;ratioP1;P1;durP2;ratioP2;P2;SDS_P1;SDS_P2;PMS_P1;PMS_P2;Temp;Humidity;BMP_temperature;BMP_pressure;BME280_temperature;BME280_humidity;BME280_pressure;Samples;Min_cycle;Max_cycle;Signal;HPM_P1;HPM_P2
2023/08/08 00:02:30;;;;;;;4.10;2.70;;;;;;;25.79;69.69;100208.60;108602;1259;65091;-88
2023/08/08 00:05:18;;;;;;;3.40;3.10;;;;;;;25.79;69.17;100212.05;108713;1259;60413;-88
2023/08/08 00:08:06;;;;;;;3.20;2.70;;;;;;;25.74;69.24;100212.98;108609;1259;59715;-87
2023/08/08 00:10:54;;;;;;;3.50;2.40;;;;;;;25.73;69.57;100207.21;108597;1261;67191;-88
2023/08/08 00:13:41;;;;;;;5.50;2.50;;;;;;;25.70;69.65;100209.83;108635;1260;60198;-86
2023/08/08 00:16:29;;;;;;;2.90;2.30;;;;;;;25.61;70.44;100213.27;108692;1260;73552;-89
2023/08/08 00:19:17;;;;;;;4.30;2.50;;;;;;;25.47;71.58;100213.63;108720;1259;59194;-87
2023/08/08 00:22:05;;;;;;;4.10;2.50;;;;;;;25.41;71.98;100217.27;108684;1258;60749;-89
2023/08/08 00:24:53;;;;;;;3.10;2.40;;;;;;;25.45;71.33;100218.09;108750;1259;76552;-87
2023/08/08 00:27:43;;;;;;;3.70;2.40;;;;;;;25.37;71.13;100223.69;108814;1258;61733;-86
2023/08/08 00:30:31;;;;;;;3.60;2.90;;;;;;;25.21;71.30;100222.52;108720;1259;73570;-89
2023/08/08 00:33:19;;;;;;;4.50;2.30;;;;;;;25.15;71.44;100220.19;108559;1259;61669;-88
2023/08/08 00:36:06;;;;;;;3.10;2.40;;;;;;;25.09;71.47;100221.23;108760;1259;59682;-90
2023/08/08 00:38:55;;;;;;;2.50;2.10;;;;;;;24.97;72.13;100222.64;108464;1259;75440;-86
2023/08/08 00:41:43;;;;;;;5.40;2.30;;;;;;;24.91;72.46;100218.96;108578;1259;69478;-87
2023/08/08 00:44:30;;;;;;;3.40;2.20;;;;;;;24.85;72.81;100216.75;108779;1258;71302;-89
2023/08/08 00:47:18;;;;;;;6.00;2.40;;;;;;;24.92;72.27;100218.43;108691;1258;63846;-85
2023/08/08 00:50:06;;;;;;;5.40;2.50;;;;;;;24.90;72.12;100221.35;108693;1259;61566;-85
2023/08/08 00:52:54;;;;;;;4.40;2.40;;;;;;;24.85;72.49;100222.90;108568;1259;75892;-85
2023/08/08 00:55:42;;;;;;;3.70;2.30;;;;;;;24.74;73.11;100222.61;108759;1259;68719;-86
2023/08/08 00:58:29;;;;;;;3.50;2.10;;;;;;;24.57;74.08;100226.55;108735;1259;71860;-89
2023/08/08 01:01:18;;;;;;;2.50;2.30;;;;;;;24.67;73.72;100225.08;108642;1258;60236;-88
2023/08/08 01:04:06;;;;;;;2.80;2.30;;;;;;;24.62;73.74;100223.58;108396;1259;59092;-89
2023/08/08 01:07:03;;;;;;;2.40;2.20;;;;;;;24.61;73.77;100219.67;108660;1259;73436;-89
2023/08/08 01:09:55;;;;;;;3.90;2.10;;;;;;;24.65;72.87;100216.04;108750;1259;69502;-88
2023/08/08 01:12:47;;;;;;;2.40;2.20;;;;;;;24.63;73.07;100216.80;108719;1258;73705;-86
2023/08/08 01:15:38;;;;;;;5.20;2.00;;;;;;;24.62;72.42;100218.48;108657;1263;60094;-86
2023/08/08 01:18:25;;;;;;;2.70;2.10;;;;;;;24.44;71.63;100218.55;108639;1259;60033;-87
2023/08/08 01:21:15;;;;;;;7.00;2.30;;;;;;;24.33;71.61;100218.08;108639;1258;75668;-86
2023/08/08 01:24:17;;;;;;;2.20;2.00;;;;;;;24.23;73.06;100223.60;108507;1259;69661;-86
2023/08/08 01:27:06;;;;;;;3.30;2.40;;;;;;;24.17;74.41;100228.77;108757;1259;73953;-88
2023/08/08 01:29:53;;;;;;;3.30;2.30;;;;;;;24.21;74.31;100229.57;108689;1261;61101;-89
2023/08/08 01:32:41;;;;;;;3.60;1.90;;;;;;;24.23;74.45;100239.00;108649;1259;60217;-86
2023/08/08 01:35:31;;;;;;;2.10;1.90;;;;;;;24.20;74.69;100239.68;108518;1259;75875;-88
2023/08/08 01:38:40;;;;;;;3.40;2.50;;;;;;;24.17;74.83;100241.55;108602;1259;68807;-87
2023/08/08 01:41:28;;;;;;;2.90;2.20;;;;;;;24.15;75.07;100245.83;108650;1260;71204;-86
2023/08/08 01:44:16;;;;;;;2.80;2.00;;;;;;;24.18;74.85;100254.64;108626;1261;62833;-90
2023/08/08 01:47:03;;;;;;;3.40;2.30;;;;;;;24.15;74.30;100258.91;108583;1258;59393;-86
2023/08/08 01:49:52;;;;;;;3.20;2.30;;;;;;;24.03;74.47;100262.08;108549;1259;74906;-86
2023/08/08 01:52:40;;;;;;;2.90;2.30;;;;;;;24.11;74.06;100265.63;108753;1259;68718;-87
2023/08/08 01:55:28;;;;;;;2.70;2.00;;;;;;;24.15;74.00;100268.07;108750;1259;73783;-86
2023/08/08 01:58:16;;;;;;;3.30;2.00;;;;;;;24.06;74.34;100266.51;108674;1259;61211;-86
2023/08/08 02:01:04;;;;;;;3.20;2.40;;;;;;;24.03;74.07;100268.92;108644;1259;61611;-87
2023/08/08 02:03:52;;;;;;;5.70;2.50;;;;;;;24.03;73.80;100267.66;108777;1259;75531;-88
2023/08/08 02:06:40;;;;;;;3.80;2.30;;;;;;;24.02;73.62;100264.20;108763;1259;69676;-85
2023/08/08 02:09:28;;;;;;;2.60;2.40;;;;;;;24.02;73.09;100267.48;108694;1259;72797;-89
2023/08/08 02:12:16;;;;;;;3.30;2.30;;;;;;;23.93;73.30;100269.57;108555;1259;59785;-90
2023/08/08 02:15:05;;;;;;;4.90;2.40;;;;;;;23.77;74.20;100274.17;108760;1259;61217;-89
2023/08/08 02:17:53;;;;;;;3.10;2.10;;;;;;;23.68;74.84;100278.28;108673;1260;74631;-87
2023/08/08 02:20:41;;;;;;;1.90;1.50;;;;;;;23.63;75.23;100278.62;108660;1259;69781;-87
2023/08/08 02:23:29;;;;;;;2.00;1.80;;;;;;;23.67;75.20;100279.33;108670;1259;71440;-88
2023/08/08 02:26:17;;;;;;;3.70;2.20;;;;;;;23.60;75.81;100283.50;108744;1259;61782;-87
2023/08/08 02:29:05;;;;;;;2.30;2.00;;;;;;;23.57;75.98;100289.27;108720;1259;60144;-86
2023/08/08 02:31:52;;;;;;;2.20;2.00;;;;;;;23.42;75.87;100291.24;108704;1259;74586;-85
2023/08/08 02:34:41;;;;;;;2.10;1.90;;;;;;;23.47;75.34;100295.23;108703;1258;68712;-89
2023/08/08 02:37:29;;;;;;;4.70;2.60;;;;;;;23.45;75.53;100296.92;108763;1259;71414;-86
2023/08/08 02:40:17;;;;;;;3.10;2.40;;;;;;;23.50;75.51;100296.23;108744;1259;61842;-89
2023/08/08 02:43:05;;;;;;;3.50;2.00;;;;;;;23.52;75.33;100299.23;108536;1263;61391;-89
2023/08/08 02:45:53;;;;;;;3.80;2.50;;;;;;;23.44;75.85;100300.27;108751;1259;74606;-88
2023/08/08 02:48:41;;;;;;;2.90;2.50;;;;;;;23.36;75.80;100301.95;108740;1259;69748;-86
2023/08/08 02:51:29;;;;;;;3.60;2.20;;;;;;;23.17;77.29;100308.04;108756;1259;73893;-86
2023/08/08 02:54:17;;;;;;;5.50;2.10;;;;;;;23.23;77.24;100309.66;108491;1259;61162;-89
2023/08/08 02:57:05;;;;;;;2.60;2.30;;;;;;;23.20;77.80;100308.83;108479;1259;61300;-88
2023/08/08 02:59:53;;;;;;;3.20;2.40;;;;;;;23.35;77.25;100313.09;108753;1259;75449;-89
2023/08/08 03:02:41;;;;;;;2.80;2.30;;;;;;;23.54;76.46;100320.30;108493;1260;67476;-88
2023/08/08 03:05:29;;;;;;;6.50;2.80;;;;;;;23.45;78.19;100328.41;108652;1259;72517;-89
2023/08/08 03:08:17;;;;;;;10.00;2.90;;;;;;;23.66;77.87;100332.30;108723;1263;60710;-88
2023/08/08 03:11:05;;;;;;;4.10;2.80;;;;;;;23.69;77.98;100337.92;108429;1259;59407;-88
2023/08/08 03:13:53;;;;;;;3.30;2.70;;;;;;;23.59;78.61;100344.20;108565;1259;75642;-85
2023/08/08 03:16:41;;;;;;;2.60;2.40;;;;;;;23.72;78.32;100347.64;108749;1261;68357;-88
2023/08/08 03:19:29;;;;;;;3.10;2.80;;;;;;;23.72;79.17;100355.05;108718;1259;71720;-88
2023/08/08 03:22:17;;;;;;;2.30;2.10;;;;;;;23.68;80.26;100354.58;108751;1259;61445;-89
2023/08/08 03:25:06;;;;;;;2.70;2.40;;;;;;;23.85;80.34;100355.61;108773;1257;60345;-88
2023/08/08 03:27:54;;;;;;;4.00;2.40;;;;;;;24.08;80.39;100355.21;108651;1259;76877;-85
2023/08/08 03:30:42;;;;;;;3.70;2.40;;;;;;;24.40;80.27;100357.31;108613;1259;68659;-89
2023/08/08 03:33:31;;;;;;;5.10;2.20;;;;;;;24.69;79.55;100360.89;108676;1257;73712;-88
2023/08/08 03:36:19;;;;;;;4.70;2.80;;;;;;;24.89;79.43;100364.91;108691;1259;59285;-86
2023/08/08 03:39:08;;;;;;;4.00;2.70;;;;;;;25.13;79.62;100357.45;108648;1259;61127;-90
2023/08/08 03:41:55;;;;;;;3.00;2.40;;;;;;;25.33;79.99;100356.05;108700;1259;74563;-88
2023/08/08 03:44:45;;;;;;;4.50;2.50;;;;;;;25.42;80.97;100361.35;108633;1260;69748;-89
2023/08/08 03:47:33;;;;;;;6.90;2.50;;;;;;;25.67;80.32;100364.66;108658;1259;72375;-89
2023/08/08 03:50:21;;;;;;;3.20;2.20;;;;;;;25.65;81.09;100365.02;108604;1261;62325;-90
2023/08/08 03:53:09;;;;;;;2.70;2.30;;;;;;;25.77;80.31;100365.39;108705;1259;59246;-88
2023/08/08 03:55:57;;;;;;;3.20;2.50;;;;;;;26.00;78.78;100362.09;108781;1259;67014;-90
2023/08/08 03:58:45;;;;;;;3.70;2.50;;;;;;;26.33;77.31;100367.73;108744;1258;61161;-89
2023/08/08 04:01:32;;;;;;;5.60;2.60;;;;;;;26.54;77.24;100372.46;108750;1259;65792;-89
2023/08/08 04:04:20;;;;;;;3.70;2.70;;;;;;;26.76;77.34;100371.73;108748;1259;59197;-88
2023/08/08 04:07:08;;;;;;;3.10;2.60;;;;;;;26.83;78.88;100377.77;108742;1259;59660;-88
2023/08/08 04:09:56;;;;;;;6.00;2.70;;;;;;;27.20;77.60;100386.14;108801;1259;65898;-88
2023/08/08 04:12:44;;;;;;;4.70;2.60;;;;;;;27.50;76.71;100392.75;108772;1259;60352;-88
2023/08/08 04:15:31;;;;;;;4.70;2.50;;;;;;;27.77;75.69;100403.17;108631;1259;65924;-90
2023/08/08 04:18:20;;;;;;;3.30;2.80;;;;;;;28.03;73.70;100406.12;108781;1260;59674;-88
2023/08/08 04:21:07;;;;;;;5.60;2.60;;;;;;;28.15;72.59;100410.46;108764;1261;59359;-89
2023/08/08 04:23:55;;;;;;;4.80;2.40;;;;;;;28.29;71.57;100411.34;108737;1258;66973;-89
2023/08/08 04:26:43;;;;;;;4.60;2.30;;;;;;;28.44;70.17;100420.17;108748;1263;60977;-89
2023/08/08 04:29:31;;;;;;;3.70;2.20;;;;;;;28.69;67.98;100419.20;108654;1263;64825;-90
2023/08/08 04:32:19;;;;;;;3.80;2.30;;;;;;;28.79;66.44;100416.70;108596;1260;59793;-89
2023/08/08 04:35:07;;;;;;;3.50;2.40;;;;;;;28.89;65.67;100419.17;108854;1259;59294;-90
2023/08/08 04:37:55;;;;;;;6.30;2.30;;;;;;;29.05;64.74;100419.06;108879;1259;66353;-90
2023/08/08 04:40:42;;;;;;;4.00;1.80;;;;;;;29.37;62.83;100417.02;108833;1261;59904;-89
2023/08/08 04:43:30;;;;;;;3.10;2.20;;;;;;;29.57;60.84;100419.26;108872;1260;64825;-89
2023/08/08 04:46:18;;;;;;;3.50;2.00;;;;;;;29.76;57.89;100425.70;108857;1260;59139;-91
2023/08/08 04:49:05;;;;;;;4.40;2.20;;;;;;;29.86;56.72;100429.02;108719;1259;59701;-89
2023/08/08 04:51:54;;;;;;;2.60;2.00;;;;;;;29.76;57.43;100424.01;108735;1259;66883;-89
2023/08/08 04:54:42;;;;;;;2.70;2.00;;;;;;;30.12;56.07;100420.23;108782;1259;60917;-91
2023/08/08 04:57:29;;;;;;;3.10;2.10;;;;;;;30.39;54.69;100420.91;108771;1259;64392;-90
2023/08/08 05:00:17;;;;;;;2.60;2.20;;;;;;;30.55;53.79;100424.08;108764;1259;59349;-90
2023/08/08 05:03:05;;;;;;;3.70;2.10;;;;;;;30.70;51.78;100426.26;108788;1259;59112;-91
2023/08/08 05:05:53;;;;;;;4.20;2.20;;;;;;;30.94;49.85;100426.04;108745;1260;67367;-90
2023/08/08 05:08:41;;;;;;;4.00;2.40;;;;;;;30.90;49.19;100426.40;108671;1259;60070;-88
2023/08/08 05:11:29;;;;;;;4.80;2.40;;;;;;;30.90;48.48;100426.66;108768;1261;64061;-89
2023/08/08 05:14:17;;;;;;;5.80;2.50;;;;;;;30.84;48.03;100431.38;108753;1259;59217;-89
2023/08/08 05:17:05;;;;;;;5.80;2.60;;;;;;;30.75;48.24;100436.92;108794;1259;60512;-89
2023/08/08 05:19:53;;;;;;;5.00;2.30;;;;;;;30.81;49.12;100440.59;108680;1261;65852;-89
2023/08/08 05:22:41;;;;;;;6.60;2.30;;;;;;;30.99;49.86;100441.95;108643;1258;60876;-90
2023/08/08 05:25:29;;;;;;;7.10;2.60;;;;;;;31.27;49.59;100446.88;108681;1260;63943;-89
2023/08/08 05:28:17;;;;;;;5.20;2.10;;;;;;;31.55;48.60;100455.60;108744;1259;59931;-91
2023/08/08 05:31:04;;;;;;;4.00;2.10;;;;;;;31.55;47.44;100460.67;108774;1259;59067;-90
2023/08/08 05:33:52;;;;;;;3.60;2.10;;;;;;;31.66;46.83;100459.23;108703;1260;66927;-90
2023/08/08 05:36:40;;;;;;;5.30;2.50;;;;;;;31.79;46.22;100465.83;108794;1259;60024;-89
2023/08/08 05:39:30;;;;;;;5.40;2.90;;;;;;;31.94;45.01;100464.59;108763;1261;65059;-90
2023/08/08 05:42:18;;;;;;;2.60;1.90;;;;;;;32.03;44.44;100468.92;108643;1259;59860;-89
2023/08/08 05:45:06;;;;;;;4.20;2.40;;;;;;;32.18;43.81;100468.77;108815;1259;59035;-89
2023/08/08 05:47:55;;;;;;;8.70;3.70;;;;;;;32.21;43.34;100468.64;108786;1260;66094;-89
2023/08/08 05:50:43;;;;;;;8.00;3.50;;;;;;;32.26;43.81;100463.78;108757;1262;61109;-90
2023/08/08 05:53:32;;;;;;;7.50;2.90;;;;;;;32.59;43.50;100457.69;108764;1260;62776;-90
2023/08/08 05:56:19;;;;;;;6.60;2.80;;;;;;;32.80;42.74;100454.41;108709;1257;59772;-89
2023/08/08 05:59:08;;;;;;;4.10;2.60;;;;;;;32.96;41.54;100452.09;108729;1260;59319;-87
2023/08/08 06:01:56;;;;;;;3.90;2.80;;;;;;;33.09;40.49;100452.84;108641;1260;67113;-87
2023/08/08 06:04:45;;;;;;;3.60;2.70;;;;;;;33.18;40.12;100454.77;108718;1258;59915;-89
2023/08/08 06:07:32;;;;;;;9.00;3.60;;;;;;;33.37;39.94;100452.13;108748;1260;64016;-87
2023/08/08 06:10:21;;;;;;;3.30;2.50;;;;;;;33.34;40.36;100450.16;108716;1261;59766;-89
2023/08/08 06:13:09;;;;;;;4.00;2.70;;;;;;;33.65;39.66;100451.30;108784;1257;59655;-87
2023/08/08 06:15:57;;;;;;;4.20;2.50;;;;;;;33.87;39.02;100451.36;108707;1260;64656;-88
2023/08/08 06:18:45;;;;;;;3.40;2.20;;;;;;;33.81;38.83;100454.01;108737;1261;61572;-88
2023/08/08 06:21:33;;;;;;;5.10;2.20;;;;;;;33.99;39.42;100450.20;108609;1259;63964;-88
2023/08/08 06:24:21;;;;;;;5.00;2.30;;;;;;;34.13;39.49;100453.38;108629;1260;59565;-88
2023/08/08 06:27:09;;;;;;;2.00;1.60;;;;;;;34.28;39.41;100451.81;108734;1260;59196;-88
2023/08/08 06:29:57;;;;;;;5.20;2.30;;;;;;;34.46;38.50;100452.98;108738;1260;67159;-88
2023/08/08 06:32:45;;;;;;;3.30;2.30;;;;;;;34.13;38.63;100457.19;108695;1259;70897;-88
2023/08/08 06:35:32;;;;;;;3.40;2.20;;;;;;;34.13;37.60;100461.80;108671;1259;63986;-87
2023/08/08 06:38:20;;;;;;;7.60;2.10;;;;;;;34.30;37.15;100459.53;108727;1259;60766;-89
2023/08/08 06:41:08;;;;;;;4.80;2.30;;;;;;;34.29;37.22;100456.16;108638;1258;60977;-88
2023/08/08 06:43:56;;;;;;;5.30;2.50;;;;;;;34.39;36.92;100457.84;108778;1258;66864;-88
2023/08/08 06:46:44;;;;;;;2.40;2.00;;;;;;;34.60;37.04;100464.23;108668;1260;61147;-89
2023/08/08 06:49:31;;;;;;;4.00;2.40;;;;;;;34.89;36.85;100466.80;108764;1257;63919;-88
2023/08/08 06:52:20;;;;;;;3.40;1.80;;;;;;;34.95;35.75;100463.80;108669;1260;59611;-89
2023/08/08 06:55:09;;;;;;;4.30;1.90;;;;;;;34.87;35.87;100457.85;108660;1260;59750;-88
2023/08/08 06:57:57;;;;;;;2.90;1.70;;;;;;;34.92;35.89;100457.23;108724;1260;67881;-88
2023/08/08 07:00:45;;;;;;;2.30;1.60;;;;;;;35.07;34.01;100462.90;108747;1259;61240;-88
2023/08/08 07:03:32;;;;;;;3.60;1.60;;;;;;;35.09;33.01;100465.70;108720;1259;63891;-89
2023/08/08 07:06:20;;;;;;;2.10;1.90;;;;;;;35.14;32.92;100467.20;108702;1260;59424;-88
2023/08/08 07:09:11;;;;;;;2.70;1.30;;;;;;;35.16;32.96;100469.65;108629;1259;59684;-88
2023/08/08 07:11:59;;;;;;;3.40;1.60;;;;;;;35.34;33.39;100469.64;108665;1259;66905;-88
2023/08/08 07:14:48;;;;;;;1.80;1.50;;;;;;;35.50;32.92;100468.60;108718;1260;60898;-89
2023/08/08 07:17:36;;;;;;;7.10;1.90;;;;;;;35.56;32.52;100465.59;108667;1259;65308;-89
2023/08/08 07:20:24;;;;;;;2.10;1.60;;;;;;;35.73;31.33;100463.78;108766;1259;59131;-89
2023/08/08 07:23:12;;;;;;;3.00;1.60;;;;;;;35.87;30.62;100466.84;108727;1259;58948;-88
2023/08/08 07:25:59;;;;;;;1.50;1.40;;;;;;;35.94;31.69;100470.45;108736;1259;67072;-88
2023/08/08 07:28:47;;;;;;;4.10;1.40;;;;;;;35.98;32.40;100468.53;108759;1260;61062;-88
2023/08/08 07:31:35;;;;;;;1.00;0.90;;;;;;;35.90;31.83;100475.35;108690;1259;64751;-89
2023/08/08 07:34:24;;;;;;;3.00;1.40;;;;;;;35.99;30.25;100476.14;108681;1260;59772;-88
2023/08/08 07:37:56;;;;;;;3.40;1.60;;;;;;;36.03;30.17;100467.65;108621;1257;59213;-88
2023/08/08 07:41:28;;;;;;;3.40;0.90;;;;;;;36.34;30.22;100466.76;108733;1261;66824;-88
2023/08/08 07:45:00;;;;;;;3.50;1.50;;;;;;;36.40;29.59;100463.05;108717;1257;60274;-89
2023/08/08 07:48:32;;;;;;;1.50;1.20;;;;;;;36.29;30.84;100457.59;108748;1259;65012;-89
2023/08/08 07:52:04;;;;;;;2.50;1.20;;;;;;;36.53;30.57;100452.39;108727;1259;59229;-88
2023/08/08 07:55:37;;;;;;;1.40;1.30;;;;;;;37.06;29.71;100454.68;108692;1259;60140;-88
2023/08/08 07:59:09;;;;;;;1.30;1.20;;;;;;;37.50;29.14;100457.86;108758;1259;64871;-87
2023/08/08 08:02:15;;;;;;;;;;;;;;;37.84;28.28;100462.73;108726;1259;60244;-88
2023/08/08 08:05:47;;;;;;;2.80;1.50;;;;;;;38.35;29.00;100466.96;108754;1259;65041;-88
2023/08/08 08:09:19;;;;;;;4.50;1.40;;;;;;;38.79;27.58;100461.70;108723;1259;59156;-88
2023/08/08 08:12:48;;;;;;;1.70;1.50;;;;;;;38.95;27.28;100460.68;108716;1257;59016;-88
2023/08/08 08:16:21;;;;;;;3.60;1.60;;;;;;;39.07;26.06;100464.59;108734;1259;66087;-89
2023/08/08 08:19:53;;;;;;;1.60;1.40;;;;;;;39.12;25.95;100461.56;108656;1259;59765;-88
2023/08/08 08:23:18;;;;;;;3.40;1.40;;;;;;;38.76;25.57;100465.10;108766;1258;63879;-89
2023/08/08 08:26:49;;;;;;;2.40;1.40;;;;;;;38.44;25.86;100467.20;108695;1259;59250;-88
